sensor_id;sensor_type;location;lat;lon;timestamp;P1;durP1;ratioP1;P2;durP2;ratioP2
4466;SDS011;2246;42.664;23.278;2023-02-11T00:01:09;24.50;;;10.13;;
4466;SDS011;2246;42.664;23.278;2023-02-11T00:03:35;26.10;;;10.35;;
4466;SDS011;2246;42.664;23.278;2023-02-11T00:06:04;24.92;;;10.02;;
4466;SDS011;2246;42.664;23.278;2023-02-11T00:10:56;27.50;;;10.95;;
4466;SDS011;2246;42.664;23.278;2023-02-11T00:13:23;22.85;;;9.57;;
4466;SDS011;2246;42.664;23.278;2023-02-11T00:15:49;20.13;;;8.32;;
4466;SDS011;2246;42.664;23.278;2023-02-11T00:18:15;28.15;;;9.70;;
4466;SDS011;2246;42.664;23.278;2023-02-11T00:20:41;22.63;;;9.65;;
4466;SDS011;2246;42.664;23.278;2023-02-11T00:23:08;26.83;;;10.07;;
4466;SDS011;2246;42.664;23.278;2023-02-11T00:25:37;32.13;;;10.95;;
4466;SDS011;2246;42.664;23.278;2023-02-11T00:28:03;30.95;;;11.35;;
4466;SDS011;2246;42.664;23.278;2023-02-11T00:30:29;25.27;;;10.02;;
4466;SDS011;2246;42.664;23.278;2023-02-11T00:32:55;21.20;;;9.48;;
4466;SDS011;2246;42.664;23.278;2023-02-11T00:35:21;26.60;;;10.85;;
4466;SDS011;2246;42.664;23.278;2023-02-11T00:37:47;30.00;;;11.38;;
4466;SDS011;2246;42.664;23.278;2023-02-11T00:40:14;30.30;;;10.80;;
4466;SDS011;2246;42.664;23.278;2023-02-11T00:42:40;27.88;;;11.23;;
4466;SDS011;2246;42.664;23.278;2023-02-11T00:45:07;32.50;;;12.40;;
4466;SDS011;2246;42.664;23.278;2023-02-11T00:47:34;30.37;;;12.67;;
4466;SDS011;2246;42.664;23.278;2023-02-11T00:50:00;30.50;;;12.60;;
4466;SDS011;2246;42.664;23.278;2023-02-11T00:52:28;27.92;;;11.75;;
4466;SDS011;2246;42.664;23.278;2023-02-11T00:54:54;28.13;;;11.27;;
4466;SDS011;2246;42.664;23.278;2023-02-11T00:57:21;25.13;;;10.45;;
4466;SDS011;2246;42.664;23.278;2023-02-11T00:59:47;32.60;;;10.65;;
4466;SDS011;2246;42.664;23.278;2023-02-11T01:02:13;27.95;;;10.93;;
4466;SDS011;2246;42.664;23.278;2023-02-11T01:04:39;25.85;;;11.40;;
4466;SDS011;2246;42.664;23.278;2023-02-11T01:07:05;26.58;;;10.43;;
4466;SDS011;2246;42.664;23.278;2023-02-11T01:09:31;23.63;;;10.52;;
4466;SDS011;2246;42.664;23.278;2023-02-11T01:11:58;25.85;;;9.85;;
4466;SDS011;2246;42.664;23.278;2023-02-11T01:14:24;22.52;;;9.00;;
4466;SDS011;2246;42.664;23.278;2023-02-11T01:16:50;25.90;;;10.70;;
4466;SDS011;2246;42.664;23.278;2023-02-11T01:19:16;33.40;;;11.82;;
4466;SDS011;2246;42.664;23.278;2023-02-11T01:21:42;26.70;;;10.65;;
4466;SDS011;2246;42.664;23.278;2023-02-11T01:24:08;27.33;;;10.02;;
4466;SDS011;2246;42.664;23.278;2023-02-11T01:26:34;23.95;;;10.05;;
4466;SDS011;2246;42.664;23.278;2023-02-11T01:29:00;25.77;;;10.25;;
4466;SDS011;2246;42.664;23.278;2023-02-11T01:31:27;26.13;;;10.88;;
4466;SDS011;2246;42.664;23.278;2023-02-11T01:33:54;24.33;;;10.27;;
4466;SDS011;2246;42.664;23.278;2023-02-11T01:36:20;30.17;;;13.07;;
4466;SDS011;2246;42.664;23.278;2023-02-11T01:38:46;35.88;;;14.88;;
4466;SDS011;2246;42.664;23.278;2023-02-11T01:41:14;21.13;;;8.95;;
4466;SDS011;2246;42.664;23.278;2023-02-11T01:43:44;27.85;;;11.32;;
4466;SDS011;2246;42.664;23.278;2023-02-11T01:46:12;32.80;;;11.50;;
4466;SDS011;2246;42.664;23.278;2023-02-11T01:48:50;30.50;;;11.68;;
4466;SDS011;2246;42.664;23.278;2023-02-11T01:53:43;32.72;;;12.60;;
4466;SDS011;2246;42.664;23.278;2023-02-11T01:56:28;32.25;;;11.68;;
4466;SDS011;2246;42.664;23.278;2023-02-11T01:59:16;30.75;;;11.77;;
4466;SDS011;2246;42.664;23.278;2023-02-11T02:01:44;26.63;;;10.80;;
4466;SDS011;2246;42.664;23.278;2023-02-11T02:04:12;25.23;;;10.35;;
4466;SDS011;2246;42.664;23.278;2023-02-11T02:06:42;26.08;;;9.95;;
4466;SDS011;2246;42.664;23.278;2023-02-11T02:09:23;30.60;;;11.35;;
4466;SDS011;2246;42.664;23.278;2023-02-11T02:11:50;26.10;;;10.73;;
4466;SDS011;2246;42.664;23.278;2023-02-11T02:14:17;28.70;;;12.05;;
4466;SDS011;2246;42.664;23.278;2023-02-11T02:16:43;27.05;;;10.85;;
4466;SDS011;2246;42.664;23.278;2023-02-11T02:32:22;26.50;;;10.98;;
4466;SDS011;2246;42.664;23.278;2023-02-11T02:35:00;28.02;;;10.00;;
4466;SDS011;2246;42.664;23.278;2023-02-11T02:37:33;24.98;;;10.10;;
4466;SDS011;2246;42.664;23.278;2023-02-11T02:40:01;28.73;;;10.18;;
4466;SDS011;2246;42.664;23.278;2023-02-11T02:42:29;23.80;;;10.23;;
4466;SDS011;2246;42.664;23.278;2023-02-11T02:44:55;25.58;;;10.30;;
4466;SDS011;2246;42.664;23.278;2023-02-11T02:47:22;22.15;;;9.52;;
4466;SDS011;2246;42.664;23.278;2023-02-11T02:49:48;26.40;;;9.70;;
4466;SDS011;2246;42.664;23.278;2023-02-11T02:57:28;21.33;;;10.15;;
4466;SDS011;2246;42.664;23.278;2023-02-11T03:07:21;22.20;;;9.25;;
4466;SDS011;2246;42.664;23.278;2023-02-11T03:10:11;23.48;;;9.60;;
4466;SDS011;2246;42.664;23.278;2023-02-11T03:12:35;20.42;;;9.43;;
4466;SDS011;2246;42.664;23.278;2023-02-11T03:15:02;30.65;;;9.88;;
4466;SDS011;2246;42.664;23.278;2023-02-11T03:17:30;22.50;;;9.52;;
4466;SDS011;2246;42.664;23.278;2023-02-11T03:19:56;23.63;;;9.88;;
4466;SDS011;2246;42.664;23.278;2023-02-11T03:22:34;17.67;;;7.68;;
4466;SDS011;2246;42.664;23.278;2023-02-11T03:25:02;21.55;;;9.50;;
4466;SDS011;2246;42.664;23.278;2023-02-11T03:29:59;23.30;;;9.10;;
4466;SDS011;2246;42.664;23.278;2023-02-11T03:32:27;28.98;;;10.55;;
4466;SDS011;2246;42.664;23.278;2023-02-11T03:34:55;24.55;;;9.80;;
4466;SDS011;2246;42.664;23.278;2023-02-11T03:39:50;28.15;;;10.90;;
4466;SDS011;2246;42.664;23.278;2023-02-11T03:42:18;24.10;;;9.95;;
4466;SDS011;2246;42.664;23.278;2023-02-11T03:44:49;20.70;;;8.82;;
4466;SDS011;2246;42.664;23.278;2023-02-11T03:47:17;23.70;;;9.75;;
4466;SDS011;2246;42.664;23.278;2023-02-11T03:49:46;21.90;;;10.10;;
4466;SDS011;2246;42.664;23.278;2023-02-11T03:52:13;24.75;;;10.40;;
4466;SDS011;2246;42.664;23.278;2023-02-11T03:54:40;24.35;;;9.90;;
4466;SDS011;2246;42.664;23.278;2023-02-11T03:57:06;28.35;;;10.20;;
4466;SDS011;2246;42.664;23.278;2023-02-11T03:59:48;26.20;;;10.52;;
4466;SDS011;2246;42.664;23.278;2023-02-11T04:02:14;28.15;;;9.95;;
4466;SDS011;2246;42.664;23.278;2023-02-11T04:04:40;28.90;;;10.95;;
4466;SDS011;2246;42.664;23.278;2023-02-11T04:07:06;34.38;;;11.45;;
4466;SDS011;2246;42.664;23.278;2023-02-11T04:09:32;26.85;;;11.15;;
4466;SDS011;2246;42.664;23.278;2023-02-11T04:11:59;25.33;;;10.93;;
4466;SDS011;2246;42.664;23.278;2023-02-11T04:14:25;31.13;;;11.07;;
4466;SDS011;2246;42.664;23.278;2023-02-11T04:16:51;26.75;;;10.68;;
4466;SDS011;2246;42.664;23.278;2023-02-11T04:19:17;29.13;;;11.48;;
4466;SDS011;2246;42.664;23.278;2023-02-11T04:21:43;67.55;;;19.10;;
4466;SDS011;2246;42.664;23.278;2023-02-11T04:24:09;46.47;;;14.98;;
4466;SDS011;2246;42.664;23.278;2023-02-11T04:26:35;33.13;;;12.07;;
4466;SDS011;2246;42.664;23.278;2023-02-11T04:29:01;30.63;;;12.00;;
4466;SDS011;2246;42.664;23.278;2023-02-11T04:31:27;29.75;;;11.93;;
4466;SDS011;2246;42.664;23.278;2023-02-11T04:33:53;25.27;;;10.73;;
4466;SDS011;2246;42.664;23.278;2023-02-11T04:36:20;30.38;;;11.57;;
4466;SDS011;2246;42.664;23.278;2023-02-11T04:38:46;29.33;;;11.48;;
4466;SDS011;2246;42.664;23.278;2023-02-11T04:41:12;29.80;;;10.90;;
4466;SDS011;2246;42.664;23.278;2023-02-11T04:43:38;23.98;;;9.63;;
4466;SDS011;2246;42.664;23.278;2023-02-11T04:46:04;32.28;;;11.13;;
4466;SDS011;2246;42.664;23.278;2023-02-11T04:48:30;24.95;;;10.30;;
4466;SDS011;2246;42.664;23.278;2023-02-11T04:50:56;26.02;;;10.55;;
4466;SDS011;2246;42.664;23.278;2023-02-11T04:53:22;27.95;;;11.20;;
4466;SDS011;2246;42.664;23.278;2023-02-11T04:55:49;27.45;;;10.55;;
4466;SDS011;2246;42.664;23.278;2023-02-11T04:58:15;27.98;;;10.43;;
4466;SDS011;2246;42.664;23.278;2023-02-11T05:00:41;25.38;;;9.63;;
4466;SDS011;2246;42.664;23.278;2023-02-11T05:03:07;28.17;;;11.10;;
4466;SDS011;2246;42.664;23.278;2023-02-11T05:05:33;28.75;;;10.57;;
4466;SDS011;2246;42.664;23.278;2023-02-11T05:08:02;34.83;;;12.05;;
4466;SDS011;2246;42.664;23.278;2023-02-11T05:10:29;31.73;;;12.15;;
4466;SDS011;2246;42.664;23.278;2023-02-11T05:12:55;36.22;;;13.55;;
4466;SDS011;2246;42.664;23.278;2023-02-11T05:15:21;48.35;;;18.25;;
4466;SDS011;2246;42.664;23.278;2023-02-11T05:17:47;47.28;;;17.00;;
4466;SDS011;2246;42.664;23.278;2023-02-11T05:20:13;42.90;;;16.10;;
4466;SDS011;2246;42.664;23.278;2023-02-11T05:22:39;54.15;;;18.42;;
4466;SDS011;2246;42.664;23.278;2023-02-11T05:25:05;37.17;;;14.48;;
4466;SDS011;2246;42.664;23.278;2023-02-11T05:27:31;28.10;;;11.18;;
4466;SDS011;2246;42.664;23.278;2023-02-11T05:29:57;26.52;;;10.77;;
4466;SDS011;2246;42.664;23.278;2023-02-11T05:32:23;35.33;;;13.25;;
4466;SDS011;2246;42.664;23.278;2023-02-11T05:34:49;31.27;;;13.82;;
4466;SDS011;2246;42.664;23.278;2023-02-11T05:37:16;30.05;;;13.07;;
4466;SDS011;2246;42.664;23.278;2023-02-11T05:39:42;33.22;;;14.30;;
4466;SDS011;2246;42.664;23.278;2023-02-11T05:42:08;40.50;;;14.00;;
4466;SDS011;2246;42.664;23.278;2023-02-11T05:44:34;34.83;;;13.80;;
4466;SDS011;2246;42.664;23.278;2023-02-11T05:47:00;33.17;;;13.15;;
4466;SDS011;2246;42.664;23.278;2023-02-11T05:49:26;31.00;;;13.35;;
4466;SDS011;2246;42.664;23.278;2023-02-11T05:51:52;34.03;;;14.32;;
4466;SDS011;2246;42.664;23.278;2023-02-11T05:54:18;34.65;;;14.38;;
4466;SDS011;2246;42.664;23.278;2023-02-11T05:56:44;35.90;;;14.38;;
4466;SDS011;2246;42.664;23.278;2023-02-11T05:59:12;40.28;;;13.68;;
4466;SDS011;2246;42.664;23.278;2023-02-11T06:01:38;30.77;;;13.18;;
4466;SDS011;2246;42.664;23.278;2023-02-11T06:04:04;33.67;;;13.52;;
4466;SDS011;2246;42.664;23.278;2023-02-11T06:06:30;35.13;;;13.02;;
4466;SDS011;2246;42.664;23.278;2023-02-11T06:08:56;44.65;;;18.90;;
4466;SDS011;2246;42.664;23.278;2023-02-11T06:11:22;45.75;;;19.55;;
4466;SDS011;2246;42.664;23.278;2023-02-11T06:13:48;49.60;;;22.60;;
4466;SDS011;2246;42.664;23.278;2023-02-11T06:16:14;47.33;;;19.00;;
4466;SDS011;2246;42.664;23.278;2023-02-11T06:18:40;37.35;;;16.45;;
4466;SDS011;2246;42.664;23.278;2023-02-11T06:21:07;44.13;;;16.25;;
4466;SDS011;2246;42.664;23.278;2023-02-11T06:23:33;33.80;;;15.52;;
4466;SDS011;2246;42.664;23.278;2023-02-11T06:26:00;38.53;;;16.00;;
4466;SDS011;2246;42.664;23.278;2023-02-11T06:28:27;39.20;;;15.75;;
4466;SDS011;2246;42.664;23.278;2023-02-11T06:30:55;39.03;;;15.15;;
4466;SDS011;2246;42.664;23.278;2023-02-11T06:33:21;41.47;;;16.23;;
4466;SDS011;2246;42.664;23.278;2023-02-11T06:35:47;42.10;;;16.70;;
4466;SDS011;2246;42.664;23.278;2023-02-11T06:38:13;43.05;;;15.32;;
4466;SDS011;2246;42.664;23.278;2023-02-11T06:40:39;36.63;;;14.35;;
4466;SDS011;2246;42.664;23.278;2023-02-11T06:43:05;44.10;;;16.52;;
4466;SDS011;2246;42.664;23.278;2023-02-11T06:45:31;46.45;;;17.30;;
4466;SDS011;2246;42.664;23.278;2023-02-11T06:47:57;52.13;;;17.85;;
4466;SDS011;2246;42.664;23.278;2023-02-11T06:50:23;48.67;;;18.63;;
4466;SDS011;2246;42.664;23.278;2023-02-11T06:52:50;56.42;;;18.45;;
4466;SDS011;2246;42.664;23.278;2023-02-11T06:55:16;44.40;;;17.23;;
4466;SDS011;2246;42.664;23.278;2023-02-11T06:57:42;53.08;;;18.27;;
4466;SDS011;2246;42.664;23.278;2023-02-11T07:00:08;61.83;;;19.75;;
4466;SDS011;2246;42.664;23.278;2023-02-11T07:02:34;47.78;;;17.38;;
4466;SDS011;2246;42.664;23.278;2023-02-11T07:05:00;38.08;;;16.92;;
4466;SDS011;2246;42.664;23.278;2023-02-11T07:07:26;35.25;;;13.93;;
4466;SDS011;2246;42.664;23.278;2023-02-11T07:09:52;36.45;;;13.98;;
4466;SDS011;2246;42.664;23.278;2023-02-11T07:12:19;37.63;;;13.45;;
4466;SDS011;2246;42.664;23.278;2023-02-11T07:14:45;31.02;;;12.13;;
4466;SDS011;2246;42.664;23.278;2023-02-11T07:17:11;32.25;;;14.55;;
4466;SDS011;2246;42.664;23.278;2023-02-11T07:19:37;61.05;;;17.80;;
4466;SDS011;2246;42.664;23.278;2023-02-11T07:22:03;49.92;;;16.58;;
4466;SDS011;2246;42.664;23.278;2023-02-11T07:24:29;51.22;;;20.70;;
4466;SDS011;2246;42.664;23.278;2023-02-11T07:26:55;62.90;;;27.77;;
4466;SDS011;2246;42.664;23.278;2023-02-11T07:29:21;40.60;;;16.98;;
4466;SDS011;2246;42.664;23.278;2023-02-11T07:31:47;40.72;;;13.38;;
4466;SDS011;2246;42.664;23.278;2023-02-11T07:34:14;43.30;;;14.27;;
4466;SDS011;2246;42.664;23.278;2023-02-11T07:36:40;29.75;;;11.95;;
4466;SDS011;2246;42.664;23.278;2023-02-11T07:39:07;31.90;;;12.60;;
4466;SDS011;2246;42.664;23.278;2023-02-11T07:41:33;38.05;;;12.82;;
4466;SDS011;2246;42.664;23.278;2023-02-11T07:44:01;32.42;;;12.68;;
4466;SDS011;2246;42.664;23.278;2023-02-11T07:46:27;33.13;;;13.10;;
4466;SDS011;2246;42.664;23.278;2023-02-11T07:48:53;36.55;;;13.20;;
4466;SDS011;2246;42.664;23.278;2023-02-11T07:51:21;24.85;;;10.63;;
4466;SDS011;2246;42.664;23.278;2023-02-11T07:53:47;30.17;;;11.63;;
4466;SDS011;2246;42.664;23.278;2023-02-11T07:56:14;31.13;;;12.15;;
4466;SDS011;2246;42.664;23.278;2023-02-11T07:58:41;30.60;;;12.10;;
4466;SDS011;2246;42.664;23.278;2023-02-11T08:01:08;34.85;;;11.30;;
4466;SDS011;2246;42.664;23.278;2023-02-11T08:03:35;34.70;;;12.27;;
4466;SDS011;2246;42.664;23.278;2023-02-11T08:06:05;30.45;;;11.93;;
4466;SDS011;2246;42.664;23.278;2023-02-11T08:08:31;31.55;;;13.13;;
4466;SDS011;2246;42.664;23.278;2023-02-11T08:10:57;30.63;;;11.10;;
4466;SDS011;2246;42.664;23.278;2023-02-11T08:13:23;25.17;;;10.98;;
4466;SDS011;2246;42.664;23.278;2023-02-11T08:15:51;28.08;;;11.15;;
4466;SDS011;2246;42.664;23.278;2023-02-11T08:18:17;35.13;;;12.15;;
4466;SDS011;2246;42.664;23.278;2023-02-11T08:20:43;28.33;;;11.63;;
4466;SDS011;2246;42.664;23.278;2023-02-11T08:23:09;31.73;;;11.57;;
4466;SDS011;2246;42.664;23.278;2023-02-11T08:25:35;35.78;;;12.73;;
4466;SDS011;2246;42.664;23.278;2023-02-11T08:28:01;30.48;;;11.93;;
4466;SDS011;2246;42.664;23.278;2023-02-11T08:30:27;31.20;;;11.60;;
4466;SDS011;2246;42.664;23.278;2023-02-11T08:32:53;36.95;;;13.50;;
4466;SDS011;2246;42.664;23.278;2023-02-11T08:35:20;27.40;;;11.90;;
4466;SDS011;2246;42.664;23.278;2023-02-11T08:37:46;31.83;;;11.20;;
4466;SDS011;2246;42.664;23.278;2023-02-11T08:40:12;40.55;;;13.52;;
4466;SDS011;2246;42.664;23.278;2023-02-11T08:42:38;30.08;;;11.90;;
4466;SDS011;2246;42.664;23.278;2023-02-11T08:45:04;34.60;;;13.90;;
4466;SDS011;2246;42.664;23.278;2023-02-11T08:47:30;33.78;;;12.80;;
4466;SDS011;2246;42.664;23.278;2023-02-11T08:49:57;33.80;;;13.40;;
4466;SDS011;2246;42.664;23.278;2023-02-11T08:52:23;32.60;;;12.50;;
4466;SDS011;2246;42.664;23.278;2023-02-11T08:54:49;32.45;;;13.15;;
4466;SDS011;2246;42.664;23.278;2023-02-11T08:57:15;32.08;;;12.82;;
4466;SDS011;2246;42.664;23.278;2023-02-11T08:59:41;39.47;;;15.90;;
4466;SDS011;2246;42.664;23.278;2023-02-11T09:02:11;32.70;;;13.38;;
4466;SDS011;2246;42.664;23.278;2023-02-11T09:04:37;33.00;;;13.77;;
4466;SDS011;2246;42.664;23.278;2023-02-11T09:07:03;31.95;;;12.57;;
4466;SDS011;2246;42.664;23.278;2023-02-11T09:09:29;26.20;;;11.20;;
4466;SDS011;2246;42.664;23.278;2023-02-11T09:11:55;30.42;;;12.43;;
4466;SDS011;2246;42.664;23.278;2023-02-11T09:14:23;35.70;;;12.90;;
4466;SDS011;2246;42.664;23.278;2023-02-11T09:16:49;35.38;;;12.02;;
4466;SDS011;2246;42.664;23.278;2023-02-11T09:19:16;31.38;;;12.18;;
4466;SDS011;2246;42.664;23.278;2023-02-11T09:21:42;27.70;;;12.48;;
4466;SDS011;2246;42.664;23.278;2023-02-11T09:24:08;28.27;;;11.68;;
4466;SDS011;2246;42.664;23.278;2023-02-11T09:26:35;33.60;;;12.65;;
4466;SDS011;2246;42.664;23.278;2023-02-11T09:29:01;27.38;;;10.63;;
4466;SDS011;2246;42.664;23.278;2023-02-11T09:31:29;25.58;;;10.93;;
4466;SDS011;2246;42.664;23.278;2023-02-11T09:33:59;35.75;;;11.70;;
4466;SDS011;2246;42.664;23.278;2023-02-11T09:36:26;31.42;;;12.00;;
4466;SDS011;2246;42.664;23.278;2023-02-11T09:38:53;22.52;;;9.80;;
4466;SDS011;2246;42.664;23.278;2023-02-11T09:41:24;28.13;;;10.55;;
4466;SDS011;2246;42.664;23.278;2023-02-11T09:43:53;26.65;;;11.80;;
4466;SDS011;2246;42.664;23.278;2023-02-11T09:46:19;25.80;;;10.60;;
4466;SDS011;2246;42.664;23.278;2023-02-11T09:48:46;30.20;;;11.90;;
4466;SDS011;2246;42.664;23.278;2023-02-11T09:53:59;30.67;;;10.80;;
4466;SDS011;2246;42.664;23.278;2023-02-11T09:56:27;24.33;;;10.73;;
4466;SDS011;2246;42.664;23.278;2023-02-11T09:58:53;27.65;;;10.93;;
4466;SDS011;2246;42.664;23.278;2023-02-11T10:11:35;26.98;;;11.18;;
4466;SDS011;2246;42.664;23.278;2023-02-11T10:14:27;28.33;;;11.40;;
4466;SDS011;2246;42.664;23.278;2023-02-11T10:24:23;27.13;;;8.80;;
4466;SDS011;2246;42.664;23.278;2023-02-11T10:26:50;21.30;;;10.23;;
4466;SDS011;2246;42.664;23.278;2023-02-11T10:32:02;26.10;;;9.07;;
4466;SDS011;2246;42.664;23.278;2023-02-11T10:36:54;20.90;;;8.98;;
4466;SDS011;2246;42.664;23.278;2023-02-11T10:39:21;21.38;;;9.05;;
4466;SDS011;2246;42.664;23.278;2023-02-11T10:41:49;21.73;;;8.85;;
4466;SDS011;2246;42.664;23.278;2023-02-11T10:46:55;25.00;;;8.50;;
4466;SDS011;2246;42.664;23.278;2023-02-11T10:49:32;18.88;;;8.38;;
4466;SDS011;2246;42.664;23.278;2023-02-11T10:54:40;24.13;;;8.65;;
4466;SDS011;2246;42.664;23.278;2023-02-11T10:57:11;21.60;;;8.65;;
4466;SDS011;2246;42.664;23.278;2023-02-11T10:59:42;23.67;;;8.55;;
4466;SDS011;2246;42.664;23.278;2023-02-11T11:04:44;23.42;;;8.80;;
4466;SDS011;2246;42.664;23.278;2023-02-11T11:07:23;24.25;;;9.15;;
4466;SDS011;2246;42.664;23.278;2023-02-11T11:09:52;18.45;;;7.13;;
4466;SDS011;2246;42.664;23.278;2023-02-11T11:17:44;18.42;;;7.93;;
4466;SDS011;2246;42.664;23.278;2023-02-11T11:20:21;20.10;;;8.73;;
4466;SDS011;2246;42.664;23.278;2023-02-11T11:22:49;22.38;;;7.97;;
4466;SDS011;2246;42.664;23.278;2023-02-11T11:25:33;14.02;;;5.85;;
4466;SDS011;2246;42.664;23.278;2023-02-11T11:28:01;17.25;;;7.80;;
4466;SDS011;2246;42.664;23.278;2023-02-11T11:30:32;17.75;;;7.45;;
4466;SDS011;2246;42.664;23.278;2023-02-11T11:32:59;22.60;;;8.07;;
4466;SDS011;2246;42.664;23.278;2023-02-11T11:35:26;18.98;;;7.75;;
4466;SDS011;2246;42.664;23.278;2023-02-11T11:37:57;20.87;;;8.17;;
4466;SDS011;2246;42.664;23.278;2023-02-11T11:40:26;18.00;;;8.52;;
4466;SDS011;2246;42.664;23.278;2023-02-11T11:45:37;21.15;;;9.25;;
4466;SDS011;2246;42.664;23.278;2023-02-11T11:48:25;15.18;;;6.68;;
4466;SDS011;2246;42.664;23.278;2023-02-11T11:53:30;14.20;;;6.40;;
4466;SDS011;2246;42.664;23.278;2023-02-11T11:56:13;17.58;;;7.00;;
4466;SDS011;2246;42.664;23.278;2023-02-11T11:58:41;18.13;;;7.55;;
4466;SDS011;2246;42.664;23.278;2023-02-11T12:01:16;18.98;;;6.80;;
4466;SDS011;2246;42.664;23.278;2023-02-11T12:06:34;18.85;;;7.85;;
4466;SDS011;2246;42.664;23.278;2023-02-11T12:09:39;19.88;;;6.63;;
4466;SDS011;2246;42.664;23.278;2023-02-11T12:14:28;18.35;;;7.10;;
4466;SDS011;2246;42.664;23.278;2023-02-11T12:26:49;16.38;;;6.20;;
4466;SDS011;2246;42.664;23.278;2023-02-11T12:29:19;15.70;;;6.68;;
4466;SDS011;2246;42.664;23.278;2023-02-11T12:42:22;19.55;;;7.78;;
4466;SDS011;2246;42.664;23.278;2023-02-11T12:50:14;21.65;;;7.03;;
4466;SDS011;2246;42.664;23.278;2023-02-11T12:55:44;20.00;;;7.60;;
4466;SDS011;2246;42.664;23.278;2023-02-11T12:58:14;18.85;;;7.85;;
4466;SDS011;2246;42.664;23.278;2023-02-11T13:00:44;21.50;;;8.18;;
4466;SDS011;2246;42.664;23.278;2023-02-11T13:03:12;19.75;;;7.85;;
4466;SDS011;2246;42.664;23.278;2023-02-11T13:05:51;18.85;;;7.85;;
4466;SDS011;2246;42.664;23.278;2023-02-11T13:10:48;20.15;;;7.00;;
4466;SDS011;2246;42.664;23.278;2023-02-11T13:13:18;19.58;;;8.02;;
4466;SDS011;2246;42.664;23.278;2023-02-11T13:15:46;19.20;;;7.07;;
4466;SDS011;2246;42.664;23.278;2023-02-11T13:23:22;22.50;;;7.95;;
4466;SDS011;2246;42.664;23.278;2023-02-11T13:26:25;18.40;;;7.95;;
4466;SDS011;2246;42.664;23.278;2023-02-11T13:31:11;19.23;;;7.72;;
4466;SDS011;2246;42.664;23.278;2023-02-11T13:33:41;15.93;;;7.47;;
4466;SDS011;2246;42.664;23.278;2023-02-11T13:38:34;19.98;;;7.13;;
4466;SDS011;2246;42.664;23.278;2023-02-11T13:41:02;16.40;;;6.80;;
4466;SDS011;2246;42.664;23.278;2023-02-11T13:43:30;17.73;;;7.30;;
4466;SDS011;2246;42.664;23.278;2023-02-11T13:46:06;22.02;;;8.20;;
4466;SDS011;2246;42.664;23.278;2023-02-11T13:48:50;23.70;;;8.80;;
4466;SDS011;2246;42.664;23.278;2023-02-11T13:51:31;18.13;;;7.68;;
4466;SDS011;2246;42.664;23.278;2023-02-11T13:53:59;21.73;;;7.03;;
4466;SDS011;2246;42.664;23.278;2023-02-11T13:56:36;15.25;;;6.30;;
4466;SDS011;2246;42.664;23.278;2023-02-11T13:59:06;24.90;;;8.50;;
4466;SDS011;2246;42.664;23.278;2023-02-11T14:04:47;14.35;;;7.03;;
4466;SDS011;2246;42.664;23.278;2023-02-11T14:08:05;19.17;;;7.05;;
4466;SDS011;2246;42.664;23.278;2023-02-11T14:14:00;21.52;;;7.63;;
4466;SDS011;2246;42.664;23.278;2023-02-11T14:16:02;18.52;;;7.18;;
4466;SDS011;2246;42.664;23.278;2023-02-11T14:18:35;16.70;;;7.45;;
4466;SDS011;2246;42.664;23.278;2023-02-11T14:23:47;19.20;;;8.30;;
4466;SDS011;2246;42.664;23.278;2023-02-11T14:28:47;17.02;;;7.25;;
4466;SDS011;2246;42.664;23.278;2023-02-11T14:34:04;16.85;;;7.75;;
4466;SDS011;2246;42.664;23.278;2023-02-11T14:39:31;17.70;;;7.78;;
4466;SDS011;2246;42.664;23.278;2023-02-11T14:42:02;20.80;;;8.38;;
4466;SDS011;2246;42.664;23.278;2023-02-11T14:44:29;18.67;;;7.93;;
4466;SDS011;2246;42.664;23.278;2023-02-11T14:46:55;18.25;;;8.45;;
4466;SDS011;2246;42.664;23.278;2023-02-11T14:49:26;18.95;;;8.98;;
4466;SDS011;2246;42.664;23.278;2023-02-11T14:51:55;22.40;;;8.95;;
4466;SDS011;2246;42.664;23.278;2023-02-11T14:54:23;22.85;;;8.70;;
4466;SDS011;2246;42.664;23.278;2023-02-11T14:57:07;24.40;;;9.93;;
4466;SDS011;2246;42.664;23.278;2023-02-11T14:59:35;30.42;;;10.13;;
4466;SDS011;2246;42.664;23.278;2023-02-11T15:02:01;41.45;;;11.75;;
4466;SDS011;2246;42.664;23.278;2023-02-11T15:04:29;26.05;;;9.45;;
4466;SDS011;2246;42.664;23.278;2023-02-11T15:06:56;21.33;;;9.40;;
4466;SDS011;2246;42.664;23.278;2023-02-11T15:09:31;19.17;;;8.80;;
4466;SDS011;2246;42.664;23.278;2023-02-11T15:11:58;21.85;;;9.25;;
4466;SDS011;2246;42.664;23.278;2023-02-11T15:14:28;26.48;;;8.93;;
4466;SDS011;2246;42.664;23.278;2023-02-11T15:16:58;20.77;;;8.75;;
4466;SDS011;2246;42.664;23.278;2023-02-11T15:19:33;24.50;;;9.07;;
4466;SDS011;2246;42.664;23.278;2023-02-11T15:22:00;23.75;;;10.15;;
4466;SDS011;2246;42.664;23.278;2023-02-11T15:24:30;30.98;;;10.52;;
4466;SDS011;2246;42.664;23.278;2023-02-11T15:26:57;30.05;;;10.63;;
4466;SDS011;2246;42.664;23.278;2023-02-11T15:29:24;30.15;;;11.48;;
4466;SDS011;2246;42.664;23.278;2023-02-11T15:32:11;27.73;;;9.88;;
4466;SDS011;2246;42.664;23.278;2023-02-11T15:34:37;33.00;;;11.85;;
4466;SDS011;2246;42.664;23.278;2023-02-11T15:37:04;26.92;;;10.23;;
4466;SDS011;2246;42.664;23.278;2023-02-11T15:39:31;30.30;;;11.48;;
4466;SDS011;2246;42.664;23.278;2023-02-11T15:42:15;29.20;;;11.90;;
4466;SDS011;2246;42.664;23.278;2023-02-11T15:44:41;22.83;;;10.73;;
4466;SDS011;2246;42.664;23.278;2023-02-11T15:47:11;29.08;;;10.52;;
4466;SDS011;2246;42.664;23.278;2023-02-11T15:49:38;23.23;;;10.13;;
4466;SDS011;2246;42.664;23.278;2023-02-11T15:52:04;28.15;;;11.25;;
4466;SDS011;2246;42.664;23.278;2023-02-11T15:54:32;24.58;;;10.30;;
4466;SDS011;2246;42.664;23.278;2023-02-11T15:57:00;28.38;;;11.43;;
4466;SDS011;2246;42.664;23.278;2023-02-11T15:59:28;30.05;;;11.68;;
4466;SDS011;2246;42.664;23.278;2023-02-11T16:01:55;33.03;;;11.80;;
4466;SDS011;2246;42.664;23.278;2023-02-11T16:06:48;26.05;;;10.40;;
4466;SDS011;2246;42.664;23.278;2023-02-11T16:14:26;39.90;;;13.13;;
4466;SDS011;2246;42.664;23.278;2023-02-11T16:17:06;32.38;;;12.30;;
4466;SDS011;2246;42.664;23.278;2023-02-11T16:19:34;26.95;;;12.57;;
4466;SDS011;2246;42.664;23.278;2023-02-11T16:22:01;35.17;;;13.60;;
4466;SDS011;2246;42.664;23.278;2023-02-11T16:24:33;38.72;;;14.88;;
4466;SDS011;2246;42.664;23.278;2023-02-11T16:27:00;29.70;;;13.93;;
4466;SDS011;2246;42.664;23.278;2023-02-11T16:29:30;41.97;;;17.08;;
4466;SDS011;2246;42.664;23.278;2023-02-11T16:32:04;46.97;;;19.30;;
4466;SDS011;2246;42.664;23.278;2023-02-11T16:34:31;44.10;;;18.90;;
4466;SDS011;2246;42.664;23.278;2023-02-11T16:36:57;75.50;;;27.77;;
4466;SDS011;2246;42.664;23.278;2023-02-11T16:39:23;70.63;;;27.23;;
4466;SDS011;2246;42.664;23.278;2023-02-11T16:41:50;56.63;;;21.38;;
4466;SDS011;2246;42.664;23.278;2023-02-11T16:44:16;63.92;;;25.05;;
4466;SDS011;2246;42.664;23.278;2023-02-11T16:46:42;60.28;;;23.33;;
4466;SDS011;2246;42.664;23.278;2023-02-11T16:49:09;57.85;;;21.25;;
4466;SDS011;2246;42.664;23.278;2023-02-11T16:51:39;60.35;;;23.13;;
4466;SDS011;2246;42.664;23.278;2023-02-11T16:54:06;43.42;;;18.30;;
4466;SDS011;2246;42.664;23.278;2023-02-11T16:56:32;51.28;;;19.00;;
4466;SDS011;2246;42.664;23.278;2023-02-11T16:58:58;56.28;;;20.92;;
4466;SDS011;2246;42.664;23.278;2023-02-11T17:01:24;68.82;;;22.75;;
4466;SDS011;2246;42.664;23.278;2023-02-11T17:03:50;63.03;;;23.23;;
4466;SDS011;2246;42.664;23.278;2023-02-11T17:06:17;63.55;;;24.60;;
4466;SDS011;2246;42.664;23.278;2023-02-11T17:08:44;65.05;;;24.58;;
4466;SDS011;2246;42.664;23.278;2023-02-11T17:11:10;47.42;;;22.08;;
4466;SDS011;2246;42.664;23.278;2023-02-11T17:13:40;47.90;;;17.65;;
4466;SDS011;2246;42.664;23.278;2023-02-11T17:16:20;62.75;;;20.83;;